createdAt,value
2022-11-01T00:00:22.549Z,4.30
2022-11-01T00:01:22.611Z,3.70
2022-11-01T00:02:22.409Z,4.20
2022-11-01T00:03:22.592Z,3.80
2022-11-01T00:04:22.479Z,3.70
2022-11-01T00:05:22.258Z,3.90
2022-11-01T00:06:22.245Z,3.70
2022-11-01T00:07:22.250Z,3.80
2022-11-01T00:08:22.252Z,3.40
2022-11-01T00:09:22.173Z,3.70
2022-11-01T00:10:22.207Z,4.00
2022-11-01T00:11:23.707Z,3.60
2022-11-01T00:12:22.433Z,3.60
2022-11-01T00:13:22.178Z,3.80
2022-11-01T00:14:22.143Z,3.50
2022-11-01T00:15:22.184Z,4.00
2022-11-01T00:16:22.157Z,3.70
2022-11-01T00:17:22.177Z,3.50
2022-11-01T00:18:22.986Z,3.50
2022-11-01T00:19:22.341Z,3.90
2022-11-01T00:20:22.204Z,3.80
2022-11-01T00:21:22.247Z,3.50
2022-11-01T00:22:22.170Z,3.70
2022-11-01T00:23:22.094Z,3.10
2022-11-01T00:24:22.035Z,3.40
2022-11-01T00:25:22.099Z,3.20
2022-11-01T00:26:22.852Z,3.00
2022-11-01T00:27:22.375Z,3.10
2022-11-01T00:28:22.133Z,3.10
2022-11-01T00:29:22.064Z,3.50
2022-11-01T00:30:22.173Z,3.50
2022-11-01T00:31:21.958Z,2.90
2022-11-01T00:32:22.013Z,2.90
2022-11-01T00:33:22.128Z,3.50
2022-11-01T00:34:22.209Z,3.00
2022-11-01T00:35:21.935Z,3.30
2022-11-01T00:36:22.230Z,3.30
2022-11-01T00:37:21.913Z,3.40
2022-11-01T00:38:22.865Z,3.10
2022-11-01T00:39:21.825Z,3.20
2022-11-01T00:40:21.770Z,3.40
2022-11-01T00:41:21.878Z,3.70
2022-11-01T00:42:21.831Z,2.80
2022-11-01T00:43:21.779Z,2.70
2022-11-01T00:46:00.506Z,3.10
2022-11-01T00:47:01.155Z,3.00
2022-11-01T00:47:59.991Z,3.00
2022-11-01T00:48:59.628Z,2.80
2022-11-01T00:49:59.600Z,2.90
2022-11-01T00:50:59.749Z,3.00
2022-11-01T00:51:59.611Z,2.60
2022-11-01T00:52:59.707Z,2.70
2022-11-01T00:53:59.718Z,2.80
2022-11-01T00:54:59.533Z,2.30
2022-11-01T00:55:59.521Z,2.80
2022-11-01T00:56:59.628Z,2.60
2022-11-01T00:57:59.740Z,2.80
2022-11-01T00:58:59.555Z,3.00
2022-11-01T00:59:59.462Z,3.00
2022-11-01T01:00:59.775Z,2.20
2022-11-01T01:02:00.080Z,2.40
2022-11-01T01:02:59.808Z,2.60
2022-11-01T01:03:59.585Z,2.40
2022-11-01T01:04:59.621Z,2.80
2022-11-01T01:05:59.783Z,2.30
2022-11-01T01:07:00.738Z,2.50
2022-11-01T01:07:59.318Z,2.30
2022-11-01T01:08:59.393Z,2.70
2022-11-01T01:09:59.671Z,2.80
2022-11-01T01:10:59.716Z,2.30
2022-11-01T01:11:59.505Z,2.50
2022-11-01T01:12:59.627Z,2.30
2022-11-01T01:13:59.272Z,2.20
2022-11-01T01:14:59.382Z,2.50
2022-11-01T01:15:59.265Z,2.20
2022-11-01T01:16:59.483Z,2.10
2022-11-01T01:17:59.688Z,2.20
2022-11-01T01:18:59.381Z,2.50
2022-11-01T01:19:59.264Z,2.30
2022-11-01T01:20:59.715Z,2.40
2022-11-01T01:21:59.285Z,2.10
2022-11-01T01:22:59.415Z,2.40
2022-11-01T01:23:59.405Z,2.40
2022-11-01T01:24:59.382Z,2.40
2022-11-01T01:25:59.274Z,2.00
2022-11-01T01:26:59.783Z,2.30
2022-11-01T01:27:59.528Z,2.30
2022-11-01T01:29:00.208Z,2.40
2022-11-01T01:29:59.280Z,2.20
2022-11-01T01:30:59.248Z,2.50
2022-11-01T01:31:59.279Z,2.20
2022-11-01T01:33:00.027Z,2.10
2022-11-01T01:33:59.100Z,2.40
2022-11-01T01:35:03.361Z,2.10
2022-11-01T01:35:59.390Z,2.40
2022-11-01T01:36:58.915Z,2.20
2022-11-01T01:37:59.359Z,2.40
2022-11-01T01:38:59.521Z,2.10
2022-11-01T01:39:59.454Z,2.30
2022-11-01T01:41:00.336Z,2.20
2022-11-01T01:41:59.008Z,2.20
2022-11-01T01:42:59.143Z,2.20
2022-11-01T01:43:59.143Z,2.40
2022-11-01T01:44:59.050Z,2.10
2022-11-01T01:45:58.830Z,2.10
2022-11-01T01:46:58.841Z,2.40
2022-11-01T01:47:58.910Z,2.20
2022-11-01T01:48:59.221Z,2.60
2022-11-01T01:49:58.792Z,2.10
2022-11-01T01:50:58.849Z,2.60
2022-11-01T01:51:58.809Z,2.30
2022-11-01T01:52:59.098Z,2.40
2022-11-01T01:53:58.945Z,2.20
2022-11-01T01:54:58.815Z,2.00
2022-11-01T01:55:58.815Z,2.10
2022-11-01T01:56:59.596Z,2.50
2022-11-01T01:57:58.689Z,2.80
2022-11-01T01:58:58.734Z,2.60
2022-11-01T01:59:58.768Z,2.60
2022-11-01T02:00:58.735Z,2.80
2022-11-01T02:01:58.744Z,2.40
2022-11-01T02:02:59.121Z,2.30
2022-11-01T02:03:58.680Z,2.40
2022-11-01T02:04:58.611Z,2.30
2022-11-01T02:05:58.795Z,2.10
2022-11-01T02:06:58.758Z,2.50
2022-11-01T02:07:58.963Z,2.00
2022-11-01T02:08:58.620Z,1.80
2022-11-01T02:09:58.607Z,2.00
2022-11-01T02:10:58.727Z,2.20
2022-11-01T02:11:58.547Z,2.20
2022-11-01T02:12:58.502Z,2.00
2022-11-01T02:13:58.542Z,2.20
2022-11-01T02:14:58.459Z,2.10
2022-11-01T02:15:59.114Z,2.10
2022-11-01T02:16:58.464Z,2.10
2022-11-01T02:17:58.899Z,2.50
2022-11-01T02:18:58.355Z,2.30
2022-11-01T02:19:58.798Z,2.40
2022-11-01T02:20:58.381Z,2.10
2022-11-01T02:21:58.486Z,2.20
2022-11-01T02:22:58.524Z,2.30
2022-11-01T02:23:58.538Z,2.00
2022-11-01T02:24:58.737Z,1.80
2022-11-01T02:25:58.742Z,2.10
2022-11-01T02:26:58.321Z,1.70
2022-11-01T02:27:58.342Z,2.10
2022-11-01T02:29:03.115Z,2.20
2022-11-01T02:29:59.543Z,2.00
2022-11-01T02:30:58.329Z,1.80
2022-11-01T02:31:58.381Z,2.00
2022-11-01T02:32:58.178Z,2.00
2022-11-01T02:33:58.271Z,2.00
2022-11-01T02:34:58.287Z,1.90
2022-11-01T02:35:58.180Z,1.90
2022-11-01T02:36:58.223Z,1.80
2022-11-01T02:37:58.161Z,1.80
2022-11-01T02:38:58.324Z,2.00
2022-11-01T02:39:58.669Z,2.40
2022-11-01T02:40:58.360Z,1.40
2022-11-01T02:41:58.318Z,1.90
2022-11-01T02:42:58.428Z,1.90
2022-11-01T02:43:58.150Z,1.90
2022-11-01T02:44:58.042Z,1.90
2022-11-01T02:45:58.562Z,2.00
2022-11-01T02:46:58.205Z,1.70
2022-11-01T02:47:58.209Z,1.90
2022-11-01T02:48:58.394Z,2.10
2022-11-01T02:49:58.007Z,1.70
2022-11-01T02:50:58.149Z,1.70
2022-11-01T02:51:58.066Z,1.90
2022-11-01T02:52:58.437Z,1.80
2022-11-01T02:53:58.349Z,1.80
2022-11-01T02:54:58.166Z,1.90
2022-11-01T02:55:58.152Z,2.00
2022-11-01T02:56:58.244Z,1.80
2022-11-01T02:57:58.473Z,1.90
2022-11-01T02:58:58.162Z,1.70
2022-11-01T02:59:58.122Z,1.60
2022-11-01T03:00:58.295Z,1.70
2022-11-01T03:01:58.079Z,1.70
2022-11-01T03:02:58.252Z,1.80
2022-11-01T03:03:58.093Z,1.70
2022-11-01T03:04:58.208Z,1.40
2022-11-01T03:05:57.865Z,1.90
2022-11-01T03:06:58.197Z,1.50
2022-11-01T03:07:57.863Z,1.90
2022-11-01T03:08:58.116Z,1.70
2022-11-01T03:09:57.911Z,1.90
2022-11-01T03:10:57.795Z,1.70
2022-11-01T03:11:57.750Z,1.80
2022-11-01T03:12:57.893Z,1.70
2022-11-01T03:13:58.362Z,1.40
2022-11-01T03:14:57.635Z,2.10
2022-11-01T03:15:58.203Z,1.80
2022-11-01T03:16:57.993Z,1.90
2022-11-01T03:17:57.586Z,1.50
2022-11-01T03:18:57.596Z,1.40
2022-11-01T03:19:57.594Z,2.00
2022-11-01T03:20:58.438Z,1.70
2022-11-01T03:21:57.634Z,1.60
2022-11-01T03:22:57.505Z,1.40
2022-11-01T03:23:57.518Z,2.00
2022-11-01T03:24:57.517Z,1.70
2022-11-01T03:25:57.518Z,1.70
2022-11-01T03:26:57.627Z,1.60
2022-11-01T03:27:57.663Z,1.60
2022-11-01T03:28:59.315Z,1.70
2022-11-01T03:29:57.698Z,1.40
2022-11-01T03:30:57.475Z,1.70
2022-11-01T03:31:57.464Z,1.50
2022-11-01T03:32:57.724Z,1.60
2022-11-01T03:33:57.412Z,1.60
2022-11-01T03:34:57.477Z,1.50
2022-11-01T03:35:57.719Z,1.70
2022-11-01T03:36:57.529Z,1.50
2022-11-01T03:37:57.469Z,1.40
2022-11-01T03:38:59.257Z,1.50
2022-11-01T03:39:57.383Z,1.40
2022-11-01T03:41:00.210Z,1.50
2022-11-01T03:41:57.377Z,2.10
2022-11-01T03:42:57.666Z,1.80
2022-11-01T03:43:57.443Z,1.60
2022-11-01T03:44:57.419Z,1.40
2022-11-01T03:45:57.569Z,1.80
2022-11-01T03:46:57.205Z,1.70
2022-11-01T03:47:57.570Z,1.60
2022-11-01T03:48:58.811Z,1.60
2022-11-01T03:49:58.794Z,1.70
2022-11-01T03:50:57.357Z,1.70
2022-11-01T03:51:57.137Z,1.40
2022-11-01T03:53:00.228Z,1.60
2022-11-01T03:53:57.354Z,1.60
2022-11-01T03:54:57.192Z,1.70
2022-11-01T03:55:57.341Z,1.50
2022-11-01T03:56:59.545Z,1.80
2022-11-01T03:57:57.884Z,1.50
2022-11-01T03:58:57.098Z,1.40
2022-11-01T03:59:57.170Z,1.70
2022-11-01T04:00:57.224Z,2.10
2022-11-01T04:01:57.253Z,1.80
2022-11-01T04:03:03.363Z,1.80
2022-11-01T04:03:58.655Z,1.50
2022-11-01T04:04:57.314Z,1.50
2022-11-01T04:05:57.351Z,1.80
2022-11-01T04:06:56.925Z,1.60
2022-11-01T04:07:56.991Z,1.60
2022-11-01T04:08:57.125Z,1.60
2022-11-01T04:09:58.606Z,1.60
2022-11-01T04:10:57.583Z,1.60
2022-11-01T04:11:56.925Z,1.50
2022-11-01T04:12:57.055Z,1.50
2022-11-01T04:13:59.058Z,1.90
2022-11-01T04:14:57.182Z,1.50
2022-11-01T04:15:56.959Z,1.60
2022-11-01T04:16:57.064Z,1.50
2022-11-01T04:17:57.031Z,1.90
2022-11-01T04:18:56.967Z,2.00
2022-11-01T04:19:57.141Z,1.90
2022-11-01T04:20:56.876Z,1.60
2022-11-01T04:21:57.004Z,1.30
2022-11-01T04:22:56.824Z,1.40
2022-11-01T04:23:56.694Z,1.70
2022-11-01T04:24:57.016Z,1.50
2022-11-01T04:25:56.892Z,1.40
2022-11-01T04:26:57.271Z,1.60
2022-11-01T04:27:57.753Z,2.10
2022-11-01T04:28:57.212Z,1.60
2022-11-01T04:29:56.756Z,1.60
2022-11-01T04:30:56.907Z,1.50
2022-11-01T04:31:56.621Z,1.90
2022-11-01T04:32:56.824Z,1.60
2022-11-01T04:33:56.853Z,1.20
2022-11-01T04:34:56.990Z,1.20
2022-11-01T04:35:56.585Z,1.60
2022-11-01T04:36:57.552Z,1.80
2022-11-01T04:37:57.416Z,1.90
2022-11-01T04:38:56.954Z,1.70
2022-11-01T04:39:56.725Z,1.50
2022-11-01T04:40:56.571Z,1.40
2022-11-01T04:41:56.809Z,1.60
2022-11-01T04:42:56.744Z,1.60
2022-11-01T04:44:21.229Z,1.50
2022-11-01T04:44:57.274Z,1.80
2022-11-01T04:45:56.723Z,1.60
2022-11-01T04:46:56.607Z,1.60
2022-11-01T04:47:56.440Z,1.50
2022-11-01T04:48:56.887Z,1.50
2022-11-01T04:49:57.239Z,1.70
2022-11-01T04:50:56.397Z,1.70
2022-11-01T04:52:06.770Z,1.50
2022-11-01T04:52:57.555Z,1.50
2022-11-01T04:54:03.654Z,1.70
2022-11-01T04:54:57.238Z,1.50
2022-11-01T04:56:07.001Z,1.70
2022-11-01T04:56:56.333Z,1.50
2022-11-01T04:57:56.776Z,1.30
2022-11-01T04:58:57.768Z,1.60
2022-11-01T04:59:56.392Z,1.50
2022-11-01T05:00:56.458Z,1.40
2022-11-01T05:01:56.609Z,1.50
2022-11-01T05:02:56.161Z,1.50
2022-11-01T05:03:57.160Z,1.60
2022-11-01T05:04:56.669Z,1.80
2022-11-01T05:06:24.531Z,1.70
2022-11-01T05:06:58.633Z,1.40
2022-11-01T05:07:56.102Z,1.50
2022-11-01T05:08:56.198Z,1.40
2022-11-01T05:09:58.237Z,1.40
2022-11-01T05:10:56.521Z,1.40
2022-11-01T05:11:56.092Z,1.50
2022-11-01T05:12:56.064Z,1.30
2022-11-01T05:14:00.567Z,1.30
2022-11-01T05:14:57.001Z,1.20
2022-11-01T05:18:10.603Z,1.50
2022-11-01T05:19:24.017Z,1.50
2022-11-01T05:20:16.019Z,1.30
2022-11-01T05:21:08.723Z,1.50
2022-11-01T05:22:08.309Z,1.40
2022-11-01T05:23:13.736Z,1.50
2022-11-01T05:24:09.005Z,1.30
2022-11-01T05:25:08.058Z,1.30
2022-11-01T05:26:08.207Z,1.40
2022-11-01T05:27:08.135Z,1.60
2022-11-01T05:28:08.226Z,1.50
2022-11-01T05:29:13.395Z,1.50
2022-11-01T05:30:09.109Z,1.50
2022-11-01T05:31:10.102Z,1.30
2022-11-01T05:32:08.580Z,1.50
2022-11-01T05:33:08.274Z,1.50
2022-11-01T05:34:08.160Z,1.40
2022-11-01T05:35:16.050Z,1.50
2022-11-01T05:36:10.247Z,1.40
2022-11-01T05:37:08.865Z,1.80
2022-11-01T05:38:07.924Z,1.20
2022-11-01T05:39:07.863Z,1.70
2022-11-01T05:40:08.716Z,1.70
2022-11-01T05:41:10.857Z,1.70
2022-11-01T05:42:09.182Z,1.80
2022-11-01T05:43:07.970Z,1.50
2022-11-01T05:44:07.877Z,1.70
2022-11-01T05:45:08.215Z,1.50
2022-11-01T05:46:09.836Z,1.50
2022-11-01T05:47:08.448Z,1.30
2022-11-01T05:48:07.850Z,1.70
2022-11-01T05:49:08.507Z,1.50
2022-11-01T05:50:08.157Z,1.40
2022-11-01T05:51:08.277Z,1.30
2022-11-01T05:52:08.939Z,1.80
2022-11-01T05:53:11.834Z,1.40
2022-11-01T05:54:11.099Z,1.40
2022-11-01T05:55:08.449Z,1.40
2022-11-01T05:56:08.948Z,1.20
2022-11-01T05:57:08.041Z,1.40
2022-11-01T05:58:07.677Z,1.00
2022-11-01T05:59:07.651Z,1.40
2022-11-01T06:00:09.750Z,1.50
2022-11-01T06:01:07.714Z,1.40
2022-11-01T06:02:08.644Z,1.20
2022-11-01T06:03:08.723Z,1.40
2022-11-01T06:04:12.390Z,1.40
2022-11-01T06:05:08.225Z,1.30
2022-11-01T06:06:07.889Z,1.60
2022-11-01T06:07:08.384Z,1.30
2022-11-01T06:08:10.229Z,1.40
2022-11-01T06:09:08.692Z,1.80
2022-11-01T06:10:08.851Z,1.30
2022-11-01T06:11:14.756Z,1.70
2022-11-01T06:12:09.669Z,1.30
2022-11-01T06:13:09.453Z,1.40
2022-11-01T06:14:08.359Z,1.50
2022-11-01T06:15:10.927Z,1.50
2022-11-01T06:16:14.430Z,1.40
2022-11-01T06:17:07.426Z,1.60
2022-11-01T06:18:11.154Z,1.30
2022-11-01T06:19:12.176Z,1.30
2022-11-01T06:20:11.773Z,1.40
2022-11-01T06:21:10.206Z,1.50
2022-11-01T06:22:08.506Z,1.10
2022-11-01T06:25:31.480Z,1.10
2022-11-01T06:26:08.412Z,1.20
2022-11-01T06:27:11.452Z,1.20
2022-11-01T06:28:06.420Z,1.40
2022-11-01T06:29:05.465Z,1.40
2022-11-01T06:30:05.837Z,1.60
2022-11-01T06:32:05.279Z,1.60
2022-11-01T06:33:05.566Z,1.10
2022-11-01T06:35:34.708Z,1.30
2022-11-01T06:36:34.151Z,1.20
2022-11-01T06:37:33.295Z,1.20
2022-11-01T06:38:35.047Z,1.40
2022-11-01T06:39:33.469Z,1.20
2022-11-01T06:40:41.310Z,1.00
2022-11-01T06:41:37.449Z,1.40
2022-11-01T06:42:33.238Z,0.90
2022-11-01T06:43:34.693Z,1.00
2022-11-01T06:44:35.389Z,1.10
2022-11-01T06:45:55.857Z,0.80
2022-11-01T06:46:33.200Z,1.10
2022-11-01T06:47:33.278Z,1.10
2022-11-01T06:48:38.052Z,1.10
2022-11-01T06:49:34.486Z,1.10
2022-11-01T06:50:34.348Z,0.90
2022-11-01T06:51:34.350Z,1.00
2022-11-01T06:52:36.102Z,1.10
2022-11-01T06:53:33.595Z,0.90
2022-11-01T06:54:33.025Z,1.10
2022-11-01T06:55:35.388Z,0.70
2022-11-01T06:56:34.778Z,0.90
2022-11-01T06:57:34.264Z,1.00
2022-11-01T06:58:47.805Z,0.90
2022-11-01T06:59:35.046Z,1.10
2022-11-01T07:00:41.467Z,0.90
2022-11-01T07:01:33.966Z,0.90
2022-11-01T07:02:35.678Z,0.80
2022-11-01T07:03:47.240Z,1.00
2022-11-01T07:04:39.274Z,1.00
2022-11-01T07:05:36.068Z,0.90
2022-11-01T07:06:34.675Z,0.90
2022-11-01T07:07:32.823Z,1.00
2022-11-01T07:08:36.614Z,0.90
2022-11-01T07:09:33.441Z,0.80
2022-11-01T07:10:37.061Z,0.60
2022-11-01T07:11:36.309Z,1.20
2022-11-01T07:12:41.117Z,0.90
2022-11-01T07:13:33.296Z,1.00
2022-11-01T07:14:34.390Z,0.80
2022-11-01T07:15:32.896Z,0.70
2022-11-01T07:16:33.859Z,0.80
2022-11-01T07:17:35.071Z,1.00
2022-11-01T07:18:36.173Z,0.60
2022-11-01T07:19:32.816Z,0.70
2022-11-01T07:20:32.761Z,0.90
2022-11-01T07:21:33.106Z,0.90
2022-11-01T07:24:13.222Z,0.80
2022-11-01T07:25:12.073Z,0.90
2022-11-01T07:25:50.401Z,0.80
2022-11-01T07:26:51.502Z,0.80
2022-11-01T07:27:54.335Z,0.90
2022-11-01T07:28:50.872Z,0.80
2022-11-01T07:29:51.946Z,0.60
2022-11-01T07:30:52.995Z,0.90
2022-11-01T07:31:52.642Z,0.90
2022-11-01T07:32:49.487Z,0.50
2022-11-01T07:33:53.015Z,0.70
2022-11-01T07:34:52.834Z,0.90
2022-11-01T07:35:53.126Z,0.60
2022-11-01T07:36:49.306Z,0.70
2022-11-01T07:37:49.260Z,0.70
2022-11-01T07:38:56.214Z,0.70
2022-11-01T07:39:54.406Z,0.50
2022-11-01T07:40:51.390Z,0.50
2022-11-01T07:41:49.774Z,0.50
2022-11-01T07:43:00.128Z,0.60
2022-11-01T07:43:53.594Z,0.50
2022-11-01T07:44:49.268Z,0.60
2022-11-01T07:45:49.912Z,0.70
2022-11-01T07:46:50.392Z,0.60
2022-11-01T07:47:50.399Z,0.80
2022-11-01T07:48:49.689Z,0.60
2022-11-01T07:49:59.619Z,0.70
2022-11-01T07:52:44.476Z,0.80
2022-11-01T07:53:41.381Z,0.70
2022-11-01T07:56:15.948Z,0.70
2022-11-01T07:56:56.754Z,0.60
2022-11-01T07:57:56.282Z,0.50
2022-11-01T08:00:55.920Z,0.50
2022-11-01T08:01:31.418Z,0.50
2022-11-01T08:02:35.221Z,1.00
2022-11-01T08:03:37.732Z,0.70
2022-11-01T08:07:51.467Z,0.70
2022-11-01T08:08:50.891Z,0.70
2022-11-01T08:09:50.717Z,0.70
2022-11-01T08:10:50.684Z,0.70
2022-11-01T08:11:50.712Z,0.50
2022-11-01T08:12:50.695Z,0.60
2022-11-01T08:13:50.643Z,0.80
2022-11-01T08:14:50.814Z,0.50
2022-11-01T08:15:50.650Z,0.70
2022-11-01T08:16:50.598Z,0.50
2022-11-01T08:17:50.604Z,0.40
2022-11-01T08:18:50.733Z,0.50
2022-11-01T08:19:50.528Z,0.60
2022-11-01T08:20:50.631Z,0.40
2022-11-01T08:21:50.628Z,0.60
2022-11-01T08:22:51.178Z,0.50
2022-11-01T08:23:50.625Z,0.70
2022-11-01T08:24:50.707Z,0.70
2022-11-01T08:25:50.451Z,0.70
2022-11-01T08:26:50.463Z,0.80
2022-11-01T08:27:50.515Z,0.50
2022-11-01T08:28:50.396Z,0.40
2022-11-01T08:29:50.517Z,0.60
2022-11-01T08:30:50.396Z,0.50
2022-11-01T08:31:50.562Z,0.60
2022-11-01T08:32:50.534Z,0.50
2022-11-01T08:33:50.440Z,0.60
2022-11-01T08:34:50.418Z,0.70
2022-11-01T08:35:50.948Z,0.40
2022-11-01T08:36:53.768Z,0.80
2022-11-01T08:37:54.529Z,0.50
2022-11-01T08:38:53.477Z,0.60
2022-11-01T08:39:51.131Z,0.50
2022-11-01T08:40:53.235Z,0.60
2022-11-01T08:41:51.628Z,0.50
2022-11-01T08:42:50.907Z,0.30
2022-11-01T08:43:51.547Z,0.70
2022-11-01T08:44:53.973Z,0.50
2022-11-01T08:45:51.528Z,0.70
2022-11-01T08:46:51.635Z,0.70
2022-11-01T08:47:51.011Z,0.50
2022-11-01T08:48:50.638Z,0.40
2022-11-01T08:49:50.252Z,0.50
2022-11-01T08:50:55.800Z,0.60
2022-11-01T08:51:51.309Z,0.60
2022-11-01T08:52:52.469Z,0.40
2022-11-01T08:53:50.599Z,0.50
2022-11-01T08:54:51.452Z,0.60
2022-11-01T08:55:50.576Z,0.70
2022-11-01T08:56:51.133Z,0.50
2022-11-01T08:57:51.411Z,0.70
2022-11-01T08:58:50.938Z,0.50
2022-11-01T08:59:52.121Z,0.70
2022-11-01T09:00:50.731Z,0.70
2022-11-01T09:01:50.801Z,0.70
2022-11-01T09:02:53.137Z,0.60
2022-11-01T09:03:52.072Z,0.80
2022-11-01T09:04:50.859Z,0.70
2022-11-01T09:05:50.029Z,0.60
2022-11-01T09:06:50.353Z,0.70
2022-11-01T09:07:52.848Z,0.70
2022-11-01T09:08:51.070Z,0.50
2022-11-01T09:09:50.654Z,0.60
2022-11-01T09:10:52.254Z,0.50
2022-11-01T09:11:51.940Z,0.60
2022-11-01T09:12:52.155Z,0.90
2022-11-01T09:13:53.879Z,0.50
2022-11-01T09:14:50.020Z,0.80
2022-11-01T09:15:52.717Z,0.60
2022-11-01T09:16:50.240Z,0.90
2022-11-01T09:17:50.140Z,0.80
2022-11-01T09:18:51.970Z,0.70
2022-11-01T09:19:50.380Z,0.80
2022-11-01T09:20:50.852Z,1.10
2022-11-01T09:21:51.837Z,0.70
2022-11-01T09:22:51.079Z,0.80
2022-11-01T09:23:50.774Z,0.70
2022-11-01T09:24:50.521Z,0.70
2022-11-01T09:25:51.073Z,0.90
2022-11-01T09:26:52.353Z,0.80
2022-11-01T09:27:50.053Z,0.70
2022-11-01T09:28:51.224Z,0.70
2022-11-01T09:29:52.042Z,0.90
2022-11-01T09:31:01.300Z,0.70
2022-11-01T09:31:51.600Z,0.60
2022-11-01T09:32:50.664Z,0.70
2022-11-01T09:33:50.211Z,0.90
2022-11-01T09:34:56.286Z,0.70
2022-11-01T09:35:55.308Z,0.80
2022-11-01T09:36:53.406Z,0.90
2022-11-01T09:37:51.624Z,0.80
2022-11-01T09:38:49.938Z,0.70
2022-11-01T09:39:50.986Z,1.00
2022-11-01T09:40:52.737Z,0.90
2022-11-01T09:41:49.980Z,0.80
2022-11-01T09:42:51.557Z,0.80
2022-11-01T09:43:50.222Z,0.70
2022-11-01T09:44:54.636Z,0.80
2022-11-01T09:45:49.716Z,0.80
2022-11-01T09:46:51.182Z,0.80
2022-11-01T09:47:50.719Z,0.90
2022-11-01T09:48:49.797Z,0.70
2022-11-01T09:49:51.366Z,0.80
2022-11-01T09:50:50.828Z,0.60
2022-11-01T09:51:49.620Z,0.60
2022-11-01T09:52:54.009Z,0.80
2022-11-01T09:53:51.194Z,0.90
2022-11-01T09:54:51.080Z,1.10
2022-11-01T09:55:53.834Z,1.10
2022-11-01T09:56:49.324Z,0.60
2022-11-01T09:57:50.495Z,0.60
2022-11-01T09:58:50.112Z,0.80
2022-11-01T09:59:52.905Z,1.10
2022-11-01T10:00:49.472Z,0.40
2022-11-01T10:01:51.460Z,0.60
2022-11-01T10:02:50.335Z,0.60
2022-11-01T10:03:53.826Z,0.70
2022-11-01T10:04:52.910Z,0.90
2022-11-01T10:05:50.568Z,1.00
2022-11-01T10:06:51.263Z,1.00
2022-11-01T10:07:50.145Z,1.10
2022-11-01T10:08:49.624Z,1.10
2022-11-01T10:09:49.128Z,1.10
2022-11-01T10:10:49.486Z,1.50
2022-11-01T10:11:49.279Z,1.00
2022-11-01T10:12:50.495Z,1.00
2022-11-01T10:13:51.641Z,1.30
2022-11-01T10:14:49.459Z,1.60
2022-11-01T10:15:49.266Z,1.00
2022-11-01T10:16:50.407Z,1.10
2022-11-01T10:17:52.111Z,0.80
2022-11-01T10:18:54.514Z,0.80
2022-11-01T10:19:51.397Z,1.10
2022-11-01T10:20:50.307Z,0.90
2022-11-01T10:21:50.406Z,0.90
2022-11-01T10:22:49.600Z,1.10
2022-11-01T10:23:52.830Z,1.10
2022-11-01T10:24:51.634Z,1.00
2022-11-01T10:25:52.285Z,0.90
2022-11-01T10:26:51.975Z,0.90
2022-11-01T10:27:49.085Z,1.20
2022-11-01T10:28:49.910Z,1.00
2022-11-01T10:29:49.631Z,1.10
2022-11-01T10:30:49.840Z,0.70
2022-11-01T10:31:48.973Z,1.00
2022-11-01T10:32:49.455Z,1.10
2022-11-01T10:33:49.496Z,1.00
2022-11-01T10:34:51.115Z,1.00
2022-11-01T10:35:52.186Z,1.00
2022-11-01T10:36:52.875Z,0.80
2022-11-01T10:38:03.997Z,0.70
2022-11-01T10:39:56.430Z,1.10
2022-11-01T10:40:50.543Z,0.90
2022-11-01T10:41:50.904Z,1.00
2022-11-01T10:42:48.969Z,0.90
2022-11-01T10:43:49.041Z,1.10
2022-11-01T10:44:51.708Z,0.60
2022-11-01T10:45:49.188Z,1.00
2022-11-01T10:46:49.478Z,0.90
2022-11-01T10:47:50.023Z,1.00
2022-11-01T10:48:50.978Z,0.80
2022-11-01T10:50:11.580Z,0.60
2022-11-01T10:50:50.442Z,0.70
2022-11-01T10:51:49.957Z,0.80
2022-11-01T10:52:48.734Z,1.00
2022-11-01T10:53:49.104Z,1.10
2022-11-01T10:54:49.720Z,1.00
2022-11-01T10:55:48.935Z,1.10
2022-11-01T10:56:49.021Z,0.70
2022-11-01T10:57:48.831Z,1.00
2022-11-01T10:58:48.621Z,0.80
2022-11-01T10:59:48.663Z,0.90
2022-11-01T11:00:50.950Z,0.90
2022-11-01T11:01:59.335Z,0.90
2022-11-01T11:02:59.260Z,1.10
2022-11-01T11:03:51.472Z,0.90
2022-11-01T11:04:48.752Z,0.80
2022-11-01T11:05:51.692Z,0.80
2022-11-01T11:06:52.987Z,0.70
2022-11-01T11:07:51.550Z,0.90
2022-11-01T11:08:52.926Z,0.90
2022-11-01T11:09:52.173Z,1.20
2022-11-01T11:10:50.046Z,0.80
2022-11-01T11:11:49.392Z,0.80
2022-11-01T11:12:50.852Z,0.90
2022-11-01T11:13:49.907Z,1.10
2022-11-01T11:14:48.943Z,1.00
2022-11-01T11:15:49.055Z,1.20
2022-11-01T11:16:48.912Z,1.10
2022-11-01T11:17:50.399Z,1.00
2022-11-01T11:18:50.373Z,1.00
2022-11-01T11:19:48.747Z,1.00
2022-11-01T11:20:49.999Z,0.80
2022-11-01T11:21:48.828Z,1.00
2022-11-01T11:22:52.279Z,0.70
2022-11-01T11:23:52.103Z,0.80
2022-11-01T11:27:20.593Z,1.00
2022-11-01T11:28:15.789Z,1.00
2022-11-01T11:29:18.108Z,1.10
2022-11-01T11:30:24.028Z,0.80
2022-11-01T11:31:18.135Z,0.80
2022-11-01T11:32:20.137Z,1.00
2022-11-01T11:33:17.766Z,1.00
2022-11-01T11:34:18.288Z,0.80
2022-11-01T11:35:14.852Z,0.70
2022-11-01T11:36:14.783Z,0.80
2022-11-01T11:37:16.608Z,1.20
2022-11-01T11:38:19.657Z,1.30
2022-11-01T11:39:15.546Z,0.80
2022-11-01T11:40:14.856Z,0.90
2022-11-01T11:41:17.760Z,0.70
2022-11-01T11:42:15.587Z,0.80
2022-11-01T11:43:16.494Z,1.00
2022-11-01T11:44:15.518Z,1.00
2022-11-01T11:45:17.084Z,0.80
2022-11-01T11:46:14.648Z,0.70
2022-11-01T11:47:16.370Z,0.90
2022-11-01T11:48:14.888Z,0.90
2022-11-01T11:49:15.852Z,0.90
2022-11-01T11:50:15.130Z,0.80
2022-11-01T11:51:19.002Z,0.70
2022-11-01T11:52:16.915Z,0.60
2022-11-01T11:53:16.252Z,0.90
2022-11-01T11:54:14.900Z,0.90
2022-11-01T11:55:15.422Z,0.80
2022-11-01T11:56:15.098Z,0.90
2022-11-01T11:57:16.612Z,0.70
2022-11-01T11:58:16.097Z,1.10
2022-11-01T11:59:16.374Z,1.00
2022-11-01T12:00:15.354Z,0.80
2022-11-01T12:01:14.914Z,1.20
2022-11-01T12:02:15.837Z,0.80
2022-11-01T12:03:14.794Z,1.00
2022-11-01T12:04:15.055Z,1.00
2022-11-01T12:05:14.419Z,0.90
2022-11-01T12:06:17.411Z,0.80
2022-11-01T12:07:14.507Z,0.60
2022-11-01T12:08:14.503Z,0.70
2022-11-01T12:09:18.152Z,0.70
2022-11-01T12:10:16.486Z,0.80
2022-11-01T12:11:14.889Z,0.80
2022-11-01T12:12:14.416Z,0.70
2022-11-01T12:13:15.713Z,0.70
2022-11-01T12:14:15.822Z,0.70
2022-11-01T12:15:17.921Z,0.90
2022-11-01T12:16:15.851Z,0.70
2022-11-01T12:17:16.898Z,0.80
2022-11-01T12:18:15.984Z,0.80
2022-11-01T12:19:15.527Z,0.70
2022-11-01T12:20:15.487Z,0.60
2022-11-01T12:21:14.944Z,0.90
2022-11-01T12:22:14.950Z,1.20
2022-11-01T12:23:48.475Z,1.00
2022-11-01T12:24:14.832Z,1.00
2022-11-01T12:25:15.609Z,0.80
2022-11-01T12:26:17.879Z,0.80
2022-11-01T12:27:16.224Z,0.80
2022-11-01T12:28:15.861Z,0.90
2022-11-01T12:29:17.337Z,0.70
2022-11-01T12:30:14.600Z,0.90
2022-11-01T12:31:17.915Z,0.90
2022-11-01T12:32:35.665Z,0.90
2022-11-01T12:34:14.734Z,0.90
2022-11-01T12:35:15.898Z,0.90
2022-11-01T12:36:13.961Z,0.90
2022-11-01T12:37:18.776Z,1.00
2022-11-01T12:38:15.660Z,0.70
2022-11-01T12:39:14.404Z,0.60
2022-11-01T12:40:18.110Z,0.70
2022-11-01T12:41:14.953Z,0.60
2022-11-01T12:42:15.336Z,0.90
2022-11-01T12:46:42.157Z,0.70
2022-11-01T12:47:15.150Z,0.80
2022-11-01T12:48:14.745Z,0.80
2022-11-01T12:49:14.838Z,0.90
2022-11-01T12:50:15.766Z,0.60
2022-11-01T12:51:16.108Z,0.80
2022-11-01T12:58:18.012Z,1.20
2022-11-01T13:06:54.573Z,1.10
2022-11-01T13:11:47.129Z,0.80
2022-11-01T13:14:37.597Z,0.70
2022-11-01T13:15:34.866Z,0.80
2022-11-01T13:34:50.152Z,0.60
2022-11-01T13:35:49.190Z,0.70
2022-11-01T13:36:53.803Z,0.80
2022-11-01T13:37:52.882Z,0.60
2022-11-01T13:38:50.219Z,0.70
2022-11-01T13:39:52.744Z,1.30
2022-11-01T13:40:48.531Z,1.00
2022-11-01T13:41:49.112Z,0.90
2022-11-01T13:42:49.803Z,1.20
2022-11-01T13:43:58.463Z,0.80
2022-11-01T13:44:49.173Z,0.80
2022-11-01T13:45:47.885Z,0.70
2022-11-01T13:46:48.157Z,0.80
2022-11-01T13:47:48.607Z,0.80
2022-11-01T13:48:49.381Z,0.90
2022-11-01T13:49:49.143Z,0.90
2022-11-01T13:51:11.631Z,0.70
2022-11-01T13:51:50.642Z,0.90
2022-11-01T13:52:49.418Z,0.80
2022-11-01T13:53:48.929Z,0.90
2022-11-01T13:54:51.599Z,0.80
2022-11-01T13:55:48.355Z,1.10
2022-11-01T13:56:47.861Z,0.90
2022-11-01T13:57:47.649Z,0.90
2022-11-01T13:58:48.486Z,0.90
2022-11-01T13:59:47.611Z,0.80
2022-11-01T14:00:49.831Z,0.80
2022-11-01T14:01:49.340Z,0.80
2022-11-01T14:02:47.677Z,0.70
2022-11-01T14:03:49.985Z,0.80
2022-11-01T14:04:47.710Z,1.40
2022-11-01T14:05:47.399Z,2.80
2022-11-01T14:06:53.320Z,1.70
2022-11-01T14:07:49.526Z,0.90
2022-11-01T14:08:49.923Z,0.80
2022-11-01T14:09:47.271Z,0.70
2022-11-01T14:10:48.707Z,0.80
2022-11-01T14:11:48.773Z,0.60
2022-11-01T14:12:49.253Z,1.00
2022-11-01T14:13:49.200Z,0.60
2022-11-01T14:14:48.606Z,0.90
2022-11-01T14:15:48.081Z,0.90
2022-11-01T14:24:57.493Z,0.70
2022-11-01T14:30:09.039Z,0.80
2022-11-01T14:32:55.267Z,0.80
2022-11-01T14:36:27.449Z,0.80
2022-11-01T14:40:32.391Z,0.80